sensor_id;sensor_type;location;lat;lon;timestamp;P1;durP1;ratioP1;P2;durP2;ratioP2
35606;SDS011;21729;58.392;15.656;2022-07-25T00:01:14;3.25;;;2.30;;
35606;SDS011;21729;58.392;15.656;2022-07-25T00:03:41;2.58;;;2.20;;
35606;SDS011;21729;58.392;15.656;2022-07-25T00:06:09;2.25;;;2.05;;
35606;SDS011;21729;58.392;15.656;2022-07-25T00:08:36;3.50;;;2.30;;
35606;SDS011;21729;58.392;15.656;2022-07-25T00:11:03;2.42;;;2.22;;
35606;SDS011;21729;58.392;15.656;2022-07-25T00:13:32;2.83;;;2.50;;
35606;SDS011;21729;58.392;15.656;2022-07-25T00:15:59;2.53;;;2.10;;
35606;SDS011;21729;58.392;15.656;2022-07-25T00:18:26;3.42;;;2.42;;
35606;SDS011;21729;58.392;15.656;2022-07-25T00:20:53;2.83;;;2.20;;
35606;SDS011;21729;58.392;15.656;2022-07-25T00:23:20;2.63;;;2.30;;
35606;SDS011;21729;58.392;15.656;2022-07-25T00:25:47;2.40;;;2.20;;
35606;SDS011;21729;58.392;15.656;2022-07-25T00:28:14;2.72;;;2.00;;
35606;SDS011;21729;58.392;15.656;2022-07-25T00:30:43;3.22;;;2.10;;
35606;SDS011;21729;58.392;15.656;2022-07-25T00:33:10;3.30;;;2.33;;
35606;SDS011;21729;58.392;15.656;2022-07-25T00:35:37;2.53;;;2.33;;
35606;SDS011;21729;58.392;15.656;2022-07-25T00:38:04;3.92;;;2.35;;
35606;SDS011;21729;58.392;15.656;2022-07-25T00:40:31;2.38;;;2.17;;
35606;SDS011;21729;58.392;15.656;2022-07-25T00:42:59;2.67;;;2.03;;
35606;SDS011;21729;58.392;15.656;2022-07-25T00:45:26;2.47;;;2.13;;
35606;SDS011;21729;58.392;15.656;2022-07-25T00:47:54;3.33;;;2.30;;
35606;SDS011;21729;58.392;15.656;2022-07-25T00:50:21;2.40;;;2.20;;
35606;SDS011;21729;58.392;15.656;2022-07-25T00:52:49;2.42;;;2.22;;
35606;SDS011;21729;58.392;15.656;2022-07-25T00:55:16;3.03;;;2.42;;
35606;SDS011;21729;58.392;15.656;2022-07-25T00:57:44;4.60;;;2.67;;
35606;SDS011;21729;58.392;15.656;2022-07-25T01:00:12;3.00;;;2.70;;
35606;SDS011;21729;58.392;15.656;2022-07-25T01:02:40;2.95;;;2.40;;
35606;SDS011;21729;58.392;15.656;2022-07-25T01:05:09;2.65;;;2.45;;
35606;SDS011;21729;58.392;15.656;2022-07-25T01:07:36;2.92;;;2.55;;
35606;SDS011;21729;58.392;15.656;2022-07-25T01:10:05;5.07;;;2.60;;
35606;SDS011;21729;58.392;15.656;2022-07-25T01:12:42;3.28;;;2.58;;
35606;SDS011;21729;58.392;15.656;2022-07-25T01:15:10;2.85;;;2.10;;
35606;SDS011;21729;58.392;15.656;2022-07-25T01:17:38;4.40;;;2.38;;
35606;SDS011;21729;58.392;15.656;2022-07-25T01:22:38;3.05;;;2.40;;
35606;SDS011;21729;58.392;15.656;2022-07-25T01:25:05;2.97;;;2.47;;
35606;SDS011;21729;58.392;15.656;2022-07-25T01:27:33;2.85;;;2.50;;
35606;SDS011;21729;58.392;15.656;2022-07-25T01:30:00;2.85;;;2.38;;
35606;SDS011;21729;58.392;15.656;2022-07-25T01:32:27;2.42;;;2.22;;
35606;SDS011;21729;58.392;15.656;2022-07-25T01:34:54;3.70;;;2.30;;
35606;SDS011;21729;58.392;15.656;2022-07-25T01:37:22;3.33;;;2.38;;
35606;SDS011;21729;58.392;15.656;2022-07-25T01:39:49;2.67;;;2.38;;
35606;SDS011;21729;58.392;15.656;2022-07-25T01:42:17;3.72;;;2.45;;
35606;SDS011;21729;58.392;15.656;2022-07-25T01:44:44;2.75;;;2.30;;
35606;SDS011;21729;58.392;15.656;2022-07-25T01:47:11;3.38;;;2.42;;
35606;SDS011;21729;58.392;15.656;2022-07-25T01:49:38;2.80;;;2.50;;
35606;SDS011;21729;58.392;15.656;2022-07-25T01:52:05;4.37;;;2.40;;
35606;SDS011;21729;58.392;15.656;2022-07-25T01:54:33;3.10;;;2.53;;
35606;SDS011;21729;58.392;15.656;2022-07-25T01:57:01;2.50;;;2.30;;
35606;SDS011;21729;58.392;15.656;2022-07-25T01:59:29;4.13;;;2.75;;
35606;SDS011;21729;58.392;15.656;2022-07-25T02:01:56;3.30;;;2.55;;
35606;SDS011;21729;58.392;15.656;2022-07-25T02:04:23;3.05;;;2.35;;
35606;SDS011;21729;58.392;15.656;2022-07-25T02:06:50;2.80;;;2.60;;
35606;SDS011;21729;58.392;15.656;2022-07-25T02:09:17;4.27;;;2.77;;
35606;SDS011;21729;58.392;15.656;2022-07-25T02:11:46;4.30;;;2.78;;
35606;SDS011;21729;58.392;15.656;2022-07-25T02:14:13;3.10;;;2.43;;
35606;SDS011;21729;58.392;15.656;2022-07-25T02:16:40;3.90;;;2.70;;
35606;SDS011;21729;58.392;15.656;2022-07-25T02:19:07;5.72;;;3.20;;
35606;SDS011;21729;58.392;15.656;2022-07-25T02:21:34;2.75;;;2.50;;
35606;SDS011;21729;58.392;15.656;2022-07-25T02:24:02;4.85;;;2.70;;
35606;SDS011;21729;58.392;15.656;2022-07-25T02:26:29;4.00;;;2.67;;
35606;SDS011;21729;58.392;15.656;2022-07-25T02:28:58;4.18;;;2.78;;
35606;SDS011;21729;58.392;15.656;2022-07-25T02:31:25;4.47;;;2.75;;
35606;SDS011;21729;58.392;15.656;2022-07-25T02:33:52;3.75;;;2.63;;
35606;SDS011;21729;58.392;15.656;2022-07-25T02:36:19;2.93;;;2.50;;
35606;SDS011;21729;58.392;15.656;2022-07-25T02:38:46;4.20;;;2.60;;
35606;SDS011;21729;58.392;15.656;2022-07-25T02:41:13;3.60;;;2.83;;
35606;SDS011;21729;58.392;15.656;2022-07-25T02:43:40;3.78;;;2.78;;
35606;SDS011;21729;58.392;15.656;2022-07-25T02:46:08;3.95;;;2.50;;
35606;SDS011;21729;58.392;15.656;2022-07-25T02:48:35;4.45;;;2.80;;
35606;SDS011;21729;58.392;15.656;2022-07-25T02:51:02;4.20;;;2.70;;
35606;SDS011;21729;58.392;15.656;2022-07-25T02:53:30;2.97;;;2.65;;
35606;SDS011;21729;58.392;15.656;2022-07-25T02:55:57;3.40;;;3.00;;
35606;SDS011;21729;58.392;15.656;2022-07-25T02:58:24;3.60;;;2.70;;
35606;SDS011;21729;58.392;15.656;2022-07-25T03:00:51;5.20;;;2.83;;
35606;SDS011;21729;58.392;15.656;2022-07-25T03:03:19;3.63;;;2.90;;
35606;SDS011;21729;58.392;15.656;2022-07-25T03:05:47;3.05;;;2.75;;
35606;SDS011;21729;58.392;15.656;2022-07-25T03:08:14;3.83;;;3.00;;
35606;SDS011;21729;58.392;15.656;2022-07-25T03:10:41;4.23;;;3.00;;
35606;SDS011;21729;58.392;15.656;2022-07-25T03:13:08;3.35;;;2.83;;
35606;SDS011;21729;58.392;15.656;2022-07-25T03:15:35;3.67;;;2.83;;
35606;SDS011;21729;58.392;15.656;2022-07-25T03:18:02;3.00;;;2.70;;
35606;SDS011;21729;58.392;15.656;2022-07-25T03:20:31;3.15;;;2.78;;
35606;SDS011;21729;58.392;15.656;2022-07-25T03:22:58;3.15;;;2.53;;
35606;SDS011;21729;58.392;15.656;2022-07-25T03:25:25;3.35;;;2.53;;
35606;SDS011;21729;58.392;15.656;2022-07-25T03:27:52;3.03;;;2.72;;
35606;SDS011;21729;58.392;15.656;2022-07-25T03:30:20;3.72;;;2.67;;
35606;SDS011;21729;58.392;15.656;2022-07-25T03:32:47;2.83;;;2.50;;
35606;SDS011;21729;58.392;15.656;2022-07-25T03:35:14;2.97;;;2.50;;
35606;SDS011;21729;58.392;15.656;2022-07-25T03:37:43;3.13;;;2.83;;
35606;SDS011;21729;58.392;15.656;2022-07-25T03:40:11;3.00;;;2.70;;
35606;SDS011;21729;58.392;15.656;2022-07-25T03:42:39;3.33;;;2.40;;
35606;SDS011;21729;58.392;15.656;2022-07-25T03:45:07;3.22;;;2.55;;
35606;SDS011;21729;58.392;15.656;2022-07-25T03:47:34;4.13;;;2.75;;
35606;SDS011;21729;58.392;15.656;2022-07-25T03:50:02;2.95;;;2.72;;
35606;SDS011;21729;58.392;15.656;2022-07-25T03:52:29;3.10;;;2.80;;
35606;SDS011;21729;58.392;15.656;2022-07-25T03:54:58;3.88;;;2.67;;
35606;SDS011;21729;58.392;15.656;2022-07-25T03:57:25;5.13;;;2.90;;
35606;SDS011;21729;58.392;15.656;2022-07-25T03:59:52;2.60;;;2.40;;
35606;SDS011;21729;58.392;15.656;2022-07-25T04:02:19;3.60;;;2.63;;
35606;SDS011;21729;58.392;15.656;2022-07-25T04:04:46;3.00;;;2.63;;
35606;SDS011;21729;58.392;15.656;2022-07-25T04:07:13;3.08;;;2.65;;
35606;SDS011;21729;58.392;15.656;2022-07-25T04:09:41;3.05;;;2.63;;
35606;SDS011;21729;58.392;15.656;2022-07-25T04:12:09;3.75;;;2.85;;
35606;SDS011;21729;58.392;15.656;2022-07-25T04:14:37;3.70;;;2.57;;
35606;SDS011;21729;58.392;15.656;2022-07-25T04:17:04;3.13;;;2.83;;
35606;SDS011;21729;58.392;15.656;2022-07-25T04:19:31;3.73;;;2.87;;
35606;SDS011;21729;58.392;15.656;2022-07-25T04:21:58;4.55;;;2.78;;
35606;SDS011;21729;58.392;15.656;2022-07-25T04:24:25;3.72;;;2.85;;
35606;SDS011;21729;58.392;15.656;2022-07-25T04:26:52;3.20;;;2.90;;
35606;SDS011;21729;58.392;15.656;2022-07-25T04:29:21;7.75;;;3.17;;
35606;SDS011;21729;58.392;15.656;2022-07-25T04:31:48;5.05;;;3.00;;
35606;SDS011;21729;58.392;15.656;2022-07-25T04:34:15;3.25;;;2.95;;
35606;SDS011;21729;58.392;15.656;2022-07-25T04:36:42;3.80;;;2.80;;
35606;SDS011;21729;58.392;15.656;2022-07-25T04:39:09;3.60;;;2.90;;
35606;SDS011;21729;58.392;15.656;2022-07-25T04:41:36;3.47;;;2.70;;
35606;SDS011;21729;58.392;15.656;2022-07-25T04:44:03;3.65;;;3.00;;
35606;SDS011;21729;58.392;15.656;2022-07-25T04:46:33;3.72;;;2.78;;
35606;SDS011;21729;58.392;15.656;2022-07-25T04:49:01;4.27;;;2.90;;
35606;SDS011;21729;58.392;15.656;2022-07-25T04:51:28;3.70;;;2.92;;
35606;SDS011;21729;58.392;15.656;2022-07-25T04:53:55;4.50;;;2.75;;
35606;SDS011;21729;58.392;15.656;2022-07-25T04:56:22;4.72;;;2.67;;
35606;SDS011;21729;58.392;15.656;2022-07-25T04:58:49;4.07;;;2.83;;
35606;SDS011;21729;58.392;15.656;2022-07-25T05:01:16;3.50;;;2.78;;
35606;SDS011;21729;58.392;15.656;2022-07-25T05:03:44;5.20;;;3.00;;
35606;SDS011;21729;58.392;15.656;2022-07-25T05:06:12;3.38;;;2.80;;
35606;SDS011;21729;58.392;15.656;2022-07-25T05:08:39;3.35;;;2.90;;
35606;SDS011;21729;58.392;15.656;2022-07-25T05:11:06;2.90;;;2.45;;
35606;SDS011;21729;58.392;15.656;2022-07-25T05:13:34;3.53;;;2.97;;
35606;SDS011;21729;58.392;15.656;2022-07-25T05:16:01;5.78;;;3.03;;
35606;SDS011;21729;58.392;15.656;2022-07-25T05:18:28;2.63;;;2.42;;
35606;SDS011;21729;58.392;15.656;2022-07-25T05:20:56;4.78;;;2.58;;
35606;SDS011;21729;58.392;15.656;2022-07-25T05:23:23;4.00;;;2.35;;
35606;SDS011;21729;58.392;15.656;2022-07-25T05:25:51;6.38;;;3.08;;
35606;SDS011;21729;58.392;15.656;2022-07-25T05:28:18;3.40;;;2.88;;
35606;SDS011;21729;58.392;15.656;2022-07-25T05:30:45;4.30;;;2.97;;
35606;SDS011;21729;58.392;15.656;2022-07-25T05:33:12;3.00;;;2.75;;
35606;SDS011;21729;58.392;15.656;2022-07-25T05:35:39;4.43;;;2.80;;
35606;SDS011;21729;58.392;15.656;2022-07-25T05:38:08;5.20;;;3.03;;
35606;SDS011;21729;58.392;15.656;2022-07-25T05:40:35;4.45;;;2.85;;
35606;SDS011;21729;58.392;15.656;2022-07-25T05:43:02;4.75;;;2.80;;
35606;SDS011;21729;58.392;15.656;2022-07-25T05:45:29;2.90;;;2.55;;
35606;SDS011;21729;58.392;15.656;2022-07-25T05:47:57;3.67;;;2.78;;
35606;SDS011;21729;58.392;15.656;2022-07-25T05:50:24;7.07;;;3.05;;
35606;SDS011;21729;58.392;15.656;2022-07-25T05:52:51;4.53;;;2.92;;
35606;SDS011;21729;58.392;15.656;2022-07-25T05:55:20;5.10;;;3.20;;
35606;SDS011;21729;58.392;15.656;2022-07-25T05:57:47;3.75;;;2.63;;
35606;SDS011;21729;58.392;15.656;2022-07-25T06:00:14;5.93;;;2.90;;
35606;SDS011;21729;58.392;15.656;2022-07-25T06:02:41;3.75;;;2.55;;
35606;SDS011;21729;58.392;15.656;2022-07-25T06:05:08;2.45;;;2.25;;
35606;SDS011;21729;58.392;15.656;2022-07-25T06:07:35;4.68;;;2.35;;
35606;SDS011;21729;58.392;15.656;2022-07-25T06:10:03;2.50;;;2.30;;
35606;SDS011;21729;58.392;15.656;2022-07-25T06:12:32;3.27;;;2.10;;
35606;SDS011;21729;58.392;15.656;2022-07-25T06:14:59;3.33;;;2.38;;
35606;SDS011;21729;58.392;15.656;2022-07-25T06:17:26;2.65;;;2.40;;
35606;SDS011;21729;58.392;15.656;2022-07-25T06:19:53;2.70;;;2.38;;
35606;SDS011;21729;58.392;15.656;2022-07-25T06:22:20;3.35;;;2.75;;
35606;SDS011;21729;58.392;15.656;2022-07-25T06:24:47;2.40;;;2.20;;
35606;SDS011;21729;58.392;15.656;2022-07-25T06:27:14;4.90;;;2.58;;
35606;SDS011;21729;58.392;15.656;2022-07-25T06:29:43;2.80;;;2.60;;
35606;SDS011;21729;58.392;15.656;2022-07-25T06:32:10;3.60;;;2.70;;
35606;SDS011;21729;58.392;15.656;2022-07-25T06:34:37;4.20;;;2.60;;
35606;SDS011;21729;58.392;15.656;2022-07-25T06:37:04;2.77;;;2.40;;
35606;SDS011;21729;58.392;15.656;2022-07-25T06:39:31;4.50;;;2.80;;
35606;SDS011;21729;58.392;15.656;2022-07-25T06:41:59;5.05;;;2.60;;
35606;SDS011;21729;58.392;15.656;2022-07-25T06:44:30;2.83;;;2.60;;
35606;SDS011;21729;58.392;15.656;2022-07-25T06:46:59;3.05;;;2.45;;
35606;SDS011;21729;58.392;15.656;2022-07-25T06:49:26;3.13;;;2.50;;
35606;SDS011;21729;58.392;15.656;2022-07-25T06:51:53;4.32;;;2.38;;
35606;SDS011;21729;58.392;15.656;2022-07-25T06:54:20;2.83;;;2.60;;
35606;SDS011;21729;58.392;15.656;2022-07-25T06:56:47;2.70;;;2.50;;
35606;SDS011;21729;58.392;15.656;2022-07-25T06:59:14;3.58;;;2.92;;
35606;SDS011;21729;58.392;15.656;2022-07-25T07:01:41;3.92;;;2.63;;
35606;SDS011;21729;58.392;15.656;2022-07-25T07:04:10;4.57;;;2.80;;
35606;SDS011;21729;58.392;15.656;2022-07-25T07:06:37;3.97;;;2.85;;
35606;SDS011;21729;58.392;15.656;2022-07-25T07:09:04;2.87;;;2.57;;
35606;SDS011;21729;58.392;15.656;2022-07-25T07:11:32;3.28;;;2.80;;
35606;SDS011;21729;58.392;15.656;2022-07-25T07:13:59;3.30;;;2.60;;
35606;SDS011;21729;58.392;15.656;2022-07-25T07:16:27;3.58;;;2.92;;
35606;SDS011;21729;58.392;15.656;2022-07-25T07:18:55;3.63;;;2.75;;
35606;SDS011;21729;58.392;15.656;2022-07-25T07:21:24;3.20;;;2.83;;
35606;SDS011;21729;58.392;15.656;2022-07-25T07:23:51;3.45;;;2.95;;
35606;SDS011;21729;58.392;15.656;2022-07-25T07:26:18;4.20;;;3.15;;
35606;SDS011;21729;58.392;15.656;2022-07-25T07:28:46;5.80;;;3.03;;
35606;SDS011;21729;58.392;15.656;2022-07-25T07:31:14;3.10;;;2.85;;
35606;SDS011;21729;58.392;15.656;2022-07-25T07:33:42;4.00;;;2.77;;
35606;SDS011;21729;58.392;15.656;2022-07-25T07:36:09;6.32;;;3.33;;
35606;SDS011;21729;58.392;15.656;2022-07-25T07:38:38;3.85;;;2.95;;
35606;SDS011;21729;58.392;15.656;2022-07-25T07:41:05;3.75;;;3.10;;
35606;SDS011;21729;58.392;15.656;2022-07-25T07:43:33;4.38;;;3.03;;
35606;SDS011;21729;58.392;15.656;2022-07-25T07:46:00;5.67;;;3.57;;
35606;SDS011;21729;58.392;15.656;2022-07-25T07:48:27;7.67;;;3.30;;
35606;SDS011;21729;58.392;15.656;2022-07-25T07:50:55;3.53;;;3.22;;
35606;SDS011;21729;58.392;15.656;2022-07-25T07:53:22;5.93;;;3.40;;
35606;SDS011;21729;58.392;15.656;2022-07-25T07:56:11;5.03;;;3.22;;
35606;SDS011;21729;58.392;15.656;2022-07-25T07:58:37;6.82;;;3.65;;
35606;SDS011;21729;58.392;15.656;2022-07-25T08:01:05;3.55;;;3.22;;
35606;SDS011;21729;58.392;15.656;2022-07-25T08:03:32;6.10;;;3.60;;
35606;SDS011;21729;58.392;15.656;2022-07-25T08:06:00;5.07;;;3.47;;
35606;SDS011;21729;58.392;15.656;2022-07-25T08:08:27;5.78;;;3.38;;
35606;SDS011;21729;58.392;15.656;2022-07-25T08:10:54;7.00;;;3.50;;
35606;SDS011;21729;58.392;15.656;2022-07-25T08:13:25;4.28;;;3.38;;
35606;SDS011;21729;58.392;15.656;2022-07-25T08:15:54;4.93;;;3.40;;
35606;SDS011;21729;58.392;15.656;2022-07-25T08:18:23;3.63;;;3.28;;
35606;SDS011;21729;58.392;15.656;2022-07-25T08:20:51;6.45;;;3.50;;
35606;SDS011;21729;58.392;15.656;2022-07-25T08:23:18;5.50;;;3.50;;
35606;SDS011;21729;58.392;15.656;2022-07-25T08:25:46;3.70;;;3.40;;
35606;SDS011;21729;58.392;15.656;2022-07-25T08:28:14;5.15;;;3.72;;
35606;SDS011;21729;58.392;15.656;2022-07-25T08:30:43;4.05;;;3.42;;
35606;SDS011;21729;58.392;15.656;2022-07-25T08:33:10;7.85;;;3.65;;
35606;SDS011;21729;58.392;15.656;2022-07-25T08:35:44;3.83;;;3.30;;
35606;SDS011;21729;58.392;15.656;2022-07-25T08:38:11;4.15;;;3.70;;
35606;SDS011;21729;58.392;15.656;2022-07-25T08:40:39;4.53;;;3.50;;
35606;SDS011;21729;58.392;15.656;2022-07-25T08:43:08;4.15;;;3.67;;
35606;SDS011;21729;58.392;15.656;2022-07-25T08:45:37;4.13;;;3.38;;
35606;SDS011;21729;58.392;15.656;2022-07-25T08:48:11;4.10;;;3.30;;
35606;SDS011;21729;58.392;15.656;2022-07-25T08:50:38;3.72;;;3.40;;
35606;SDS011;21729;58.392;15.656;2022-07-25T08:53:05;5.32;;;3.72;;
35606;SDS011;21729;58.392;15.656;2022-07-25T08:55:33;4.05;;;3.55;;
35606;SDS011;21729;58.392;15.656;2022-07-25T08:58:00;4.10;;;3.28;;
35606;SDS011;21729;58.392;15.656;2022-07-25T09:00:27;4.85;;;3.60;;
35606;SDS011;21729;58.392;15.656;2022-07-25T09:02:56;4.85;;;3.35;;
35606;SDS011;21729;58.392;15.656;2022-07-25T09:05:25;3.65;;;3.35;;
35606;SDS011;21729;58.392;15.656;2022-07-25T09:07:54;4.55;;;3.40;;
35606;SDS011;21729;58.392;15.656;2022-07-25T09:10:22;3.57;;;3.07;;
35606;SDS011;21729;58.392;15.656;2022-07-25T09:12:51;4.80;;;3.38;;
35606;SDS011;21729;58.392;15.656;2022-07-25T09:15:23;3.67;;;3.15;;
35606;SDS011;21729;58.392;15.656;2022-07-25T09:17:52;4.25;;;3.33;;
35606;SDS011;21729;58.392;15.656;2022-07-25T09:20:21;4.22;;;3.45;;
35606;SDS011;21729;58.392;15.656;2022-07-25T09:22:48;4.97;;;3.13;;
35606;SDS011;21729;58.392;15.656;2022-07-25T09:25:23;3.17;;;2.90;;
35606;SDS011;21729;58.392;15.656;2022-07-25T09:27:51;4.73;;;3.40;;
35606;SDS011;21729;58.392;15.656;2022-07-25T09:30:18;4.37;;;3.17;;
35606;SDS011;21729;58.392;15.656;2022-07-25T09:32:46;3.40;;;3.10;;
35606;SDS011;21729;58.392;15.656;2022-07-25T09:35:13;3.17;;;2.88;;
35606;SDS011;21729;58.392;15.656;2022-07-25T09:37:41;4.13;;;3.00;;
35606;SDS011;21729;58.392;15.656;2022-07-25T09:40:12;3.30;;;3.00;;
35606;SDS011;21729;58.392;15.656;2022-07-25T09:42:40;3.40;;;3.13;;
35606;SDS011;21729;58.392;15.656;2022-07-25T09:45:11;3.40;;;3.10;;
35606;SDS011;21729;58.392;15.656;2022-07-25T09:50:26;3.43;;;3.00;;
35606;SDS011;21729;58.392;15.656;2022-07-25T09:52:57;3.78;;;3.00;;
35606;SDS011;21729;58.392;15.656;2022-07-25T09:55:26;3.55;;;3.10;;
35606;SDS011;21729;58.392;15.656;2022-07-25T09:57:54;3.60;;;2.88;;
35606;SDS011;21729;58.392;15.656;2022-07-25T10:00:21;3.95;;;2.78;;
35606;SDS011;21729;58.392;15.656;2022-07-25T10:02:51;3.13;;;2.80;;
35606;SDS011;21729;58.392;15.656;2022-07-25T10:05:30;3.28;;;2.70;;
35606;SDS011;21729;58.392;15.656;2022-07-25T10:08:06;3.70;;;2.85;;
35606;SDS011;21729;58.392;15.656;2022-07-25T10:10:35;4.45;;;2.85;;
35606;SDS011;21729;58.392;15.656;2022-07-25T10:13:04;3.80;;;2.63;;
35606;SDS011;21729;58.392;15.656;2022-07-25T10:15:41;3.05;;;2.65;;
35606;SDS011;21729;58.392;15.656;2022-07-25T10:18:15;3.88;;;2.50;;
35606;SDS011;21729;58.392;15.656;2022-07-25T10:20:43;3.07;;;2.70;;
35606;SDS011;21729;58.392;15.656;2022-07-25T10:23:22;2.97;;;2.67;;
35606;SDS011;21729;58.392;15.656;2022-07-25T10:26:01;3.07;;;2.87;;
35606;SDS011;21729;58.392;15.656;2022-07-25T10:28:37;2.90;;;2.70;;
35606;SDS011;21729;58.392;15.656;2022-07-25T10:31:15;4.57;;;2.83;;
35606;SDS011;21729;58.392;15.656;2022-07-25T10:33:47;2.65;;;2.45;;
35606;SDS011;21729;58.392;15.656;2022-07-25T10:36:20;3.28;;;2.75;;
35606;SDS011;21729;58.392;15.656;2022-07-25T10:38:51;3.30;;;2.97;;
35606;SDS011;21729;58.392;15.656;2022-07-25T10:41:22;3.83;;;3.00;;
35606;SDS011;21729;58.392;15.656;2022-07-25T10:43:51;3.20;;;2.67;;
35606;SDS011;21729;58.392;15.656;2022-07-25T10:46:24;3.20;;;2.90;;
35606;SDS011;21729;58.392;15.656;2022-07-25T10:48:58;3.63;;;2.95;;
35606;SDS011;21729;58.392;15.656;2022-07-25T10:51:27;4.00;;;3.20;;
35606;SDS011;21729;58.392;15.656;2022-07-25T10:53:57;4.03;;;2.80;;
35606;SDS011;21729;58.392;15.656;2022-07-25T10:56:25;2.92;;;2.72;;
35606;SDS011;21729;58.392;15.656;2022-07-25T10:58:55;3.20;;;2.90;;
35606;SDS011;21729;58.392;15.656;2022-07-25T11:01:24;3.30;;;3.00;;
35606;SDS011;21729;58.392;15.656;2022-07-25T11:03:53;4.72;;;3.20;;
35606;SDS011;21729;58.392;15.656;2022-07-25T11:06:29;3.72;;;3.10;;
35606;SDS011;21729;58.392;15.656;2022-07-25T11:08:59;4.65;;;3.13;;
35606;SDS011;21729;58.392;15.656;2022-07-25T11:11:33;4.65;;;3.60;;
35606;SDS011;21729;58.392;15.656;2022-07-25T11:14:01;4.15;;;3.58;;
35606;SDS011;21729;58.392;15.656;2022-07-25T11:16:30;4.20;;;3.33;;
35606;SDS011;21729;58.392;15.656;2022-07-25T11:18:57;3.42;;;3.10;;
35606;SDS011;21729;58.392;15.656;2022-07-25T11:21:24;4.50;;;3.50;;
35606;SDS011;21729;58.392;15.656;2022-07-25T11:23:51;5.05;;;3.30;;
35606;SDS011;21729;58.392;15.656;2022-07-25T11:26:20;4.25;;;3.40;;
35606;SDS011;21729;58.392;15.656;2022-07-25T11:28:47;4.20;;;3.47;;
35606;SDS011;21729;58.392;15.656;2022-07-25T11:31:16;4.15;;;3.72;;
35606;SDS011;21729;58.392;15.656;2022-07-25T11:33:47;5.03;;;3.20;;
35606;SDS011;21729;58.392;15.656;2022-07-25T11:36:15;3.57;;;2.97;;
35606;SDS011;21729;58.392;15.656;2022-07-25T11:38:45;3.75;;;3.10;;
35606;SDS011;21729;58.392;15.656;2022-07-25T11:41:14;3.50;;;3.20;;
35606;SDS011;21729;58.392;15.656;2022-07-25T11:43:48;4.57;;;3.38;;
35606;SDS011;21729;58.392;15.656;2022-07-25T11:46:15;4.63;;;3.30;;
35606;SDS011;21729;58.392;15.656;2022-07-25T11:48:43;3.63;;;3.30;;
35606;SDS011;21729;58.392;15.656;2022-07-25T11:51:11;3.95;;;3.35;;
35606;SDS011;21729;58.392;15.656;2022-07-25T11:53:41;4.15;;;3.60;;
35606;SDS011;21729;58.392;15.656;2022-07-25T11:56:15;4.00;;;3.30;;
35606;SDS011;21729;58.392;15.656;2022-07-25T11:58:43;4.10;;;3.63;;
35606;SDS011;21729;58.392;15.656;2022-07-25T12:01:22;3.67;;;3.30;;
35606;SDS011;21729;58.392;15.656;2022-07-25T12:03:49;4.00;;;3.30;;
35606;SDS011;21729;58.392;15.656;2022-07-25T12:06:16;3.75;;;3.42;;
35606;SDS011;21729;58.392;15.656;2022-07-25T12:08:43;4.27;;;3.87;;
35606;SDS011;21729;58.392;15.656;2022-07-25T12:11:20;3.97;;;3.58;;
35606;SDS011;21729;58.392;15.656;2022-07-25T12:13:49;4.57;;;3.80;;
35606;SDS011;21729;58.392;15.656;2022-07-25T12:16:28;3.70;;;3.40;;
35606;SDS011;21729;58.392;15.656;2022-07-25T12:18:55;3.75;;;3.38;;
35606;SDS011;21729;58.392;15.656;2022-07-25T12:21:22;4.10;;;3.70;;
35606;SDS011;21729;58.392;15.656;2022-07-25T12:23:50;3.58;;;3.28;;
35606;SDS011;21729;58.392;15.656;2022-07-25T12:26:18;4.30;;;3.72;;
35606;SDS011;21729;58.392;15.656;2022-07-25T12:28:47;4.25;;;3.85;;
35606;SDS011;21729;58.392;15.656;2022-07-25T12:31:15;4.35;;;3.63;;
35606;SDS011;21729;58.392;15.656;2022-07-25T12:33:43;4.68;;;4.00;;
35606;SDS011;21729;58.392;15.656;2022-07-25T12:36:10;3.88;;;3.58;;
35606;SDS011;21729;58.392;15.656;2022-07-25T12:38:38;4.30;;;3.95;;
35606;SDS011;21729;58.392;15.656;2022-07-25T12:41:05;4.18;;;3.78;;
35606;SDS011;21729;58.392;15.656;2022-07-25T12:43:32;4.88;;;3.83;;
35606;SDS011;21729;58.392;15.656;2022-07-25T12:45:59;4.28;;;3.75;;
35606;SDS011;21729;58.392;15.656;2022-07-25T12:48:28;4.20;;;3.70;;
35606;SDS011;21729;58.392;15.656;2022-07-25T12:50:55;4.00;;;3.60;;
35606;SDS011;21729;58.392;15.656;2022-07-25T12:53:22;4.47;;;3.92;;
35606;SDS011;21729;58.392;15.656;2022-07-25T12:55:49;4.22;;;3.88;;
35606;SDS011;21729;58.392;15.656;2022-07-25T12:58:16;3.92;;;3.53;;
35606;SDS011;21729;58.392;15.656;2022-07-25T13:00:45;3.97;;;3.63;;
35606;SDS011;21729;58.392;15.656;2022-07-25T13:03:13;4.10;;;3.70;;
35606;SDS011;21729;58.392;15.656;2022-07-25T13:05:42;4.75;;;3.83;;
35606;SDS011;21729;58.392;15.656;2022-07-25T13:08:09;4.30;;;3.90;;
35606;SDS011;21729;58.392;15.656;2022-07-25T13:10:36;4.30;;;3.90;;
35606;SDS011;21729;58.392;15.656;2022-07-25T13:13:03;4.30;;;3.90;;
35606;SDS011;21729;58.392;15.656;2022-07-25T13:15:30;4.13;;;3.72;;
35606;SDS011;21729;58.392;15.656;2022-07-25T13:18:00;4.72;;;3.92;;
35606;SDS011;21729;58.392;15.656;2022-07-25T13:20:28;5.40;;;3.65;;
35606;SDS011;21729;58.392;15.656;2022-07-25T13:22:56;5.10;;;3.75;;
35606;SDS011;21729;58.392;15.656;2022-07-25T13:25:24;4.68;;;3.65;;
35606;SDS011;21729;58.392;15.656;2022-07-25T13:27:51;5.88;;;3.70;;
35606;SDS011;21729;58.392;15.656;2022-07-25T13:30:18;5.13;;;3.75;;
35606;SDS011;21729;58.392;15.656;2022-07-25T13:32:45;5.93;;;4.32;;
35606;SDS011;21729;58.392;15.656;2022-07-25T13:35:12;5.27;;;4.40;;
35606;SDS011;21729;58.392;15.656;2022-07-25T13:37:39;5.18;;;4.47;;
35606;SDS011;21729;58.392;15.656;2022-07-25T13:40:08;4.57;;;3.97;;
35606;SDS011;21729;58.392;15.656;2022-07-25T13:42:35;4.90;;;4.50;;
35606;SDS011;21729;58.392;15.656;2022-07-25T13:45:03;4.82;;;4.40;;
35606;SDS011;21729;58.392;15.656;2022-07-25T13:47:31;4.47;;;3.90;;
35606;SDS011;21729;58.392;15.656;2022-07-25T13:49:59;4.63;;;4.22;;
35606;SDS011;21729;58.392;15.656;2022-07-25T13:52:26;4.93;;;4.13;;
35606;SDS011;21729;58.392;15.656;2022-07-25T13:54:53;4.40;;;3.90;;
35606;SDS011;21729;58.392;15.656;2022-07-25T13:57:22;4.32;;;3.92;;
35606;SDS011;21729;58.392;15.656;2022-07-25T13:59:49;5.30;;;4.45;;
35606;SDS011;21729;58.392;15.656;2022-07-25T14:02:16;7.10;;;4.68;;
35606;SDS011;21729;58.392;15.656;2022-07-25T14:04:43;4.70;;;4.07;;
35606;SDS011;21729;58.392;15.656;2022-07-25T14:07:11;4.40;;;4.00;;
35606;SDS011;21729;58.392;15.656;2022-07-25T14:09:39;4.53;;;4.00;;
35606;SDS011;21729;58.392;15.656;2022-07-25T14:12:06;4.57;;;4.05;;
35606;SDS011;21729;58.392;15.656;2022-07-25T14:14:35;4.28;;;3.85;;
35606;SDS011;21729;58.392;15.656;2022-07-25T14:17:02;4.50;;;4.00;;
35606;SDS011;21729;58.392;15.656;2022-07-25T14:19:29;5.40;;;3.83;;
35606;SDS011;21729;58.392;15.656;2022-07-25T14:21:56;4.88;;;4.43;;
35606;SDS011;21729;58.392;15.656;2022-07-25T14:24:23;4.70;;;4.00;;
35606;SDS011;21729;58.392;15.656;2022-07-25T14:26:50;4.55;;;4.13;;
35606;SDS011;21729;58.392;15.656;2022-07-25T14:29:18;4.22;;;3.83;;
35606;SDS011;21729;58.392;15.656;2022-07-25T14:31:46;4.30;;;3.90;;
35606;SDS011;21729;58.392;15.656;2022-07-25T14:34:13;4.60;;;3.80;;
35606;SDS011;21729;58.392;15.656;2022-07-25T14:36:41;4.35;;;3.95;;
35606;SDS011;21729;58.392;15.656;2022-07-25T14:39:11;4.95;;;3.85;;
35606;SDS011;21729;58.392;15.656;2022-07-25T14:41:38;5.05;;;3.95;;
35606;SDS011;21729;58.392;15.656;2022-07-25T14:44:06;5.60;;;3.97;;